Chiang Mai, Thailand

11:28 AM ICT on September 02, 2014 (GMT +0700)
ThaiWx Station | Change Station
CLOSE
Current Station
Personal Weather Station
Location: Chiang Mai, Pa Daet
Elevation: 1007 ft
Nearby Weather Stations

Elev 1007 ft 18.77 °N, 98.97 °E | Updated 1 minute ago

Light Rain
Light Rain
79.5 °F
Feels Like 84 °F
N
0.0
Wind Variable Wind from NNE
Gusts 5.4 mph

Today
High -- | Low -- °F
--% Chance of Precip.
Yesterday
High -- | Low -- °F
Precip. -- in
6:09 AM 6:38 PM
Waxing Crescent, 47% visible
Pressure 29.89 in
Visibility 5.0 miles
Clouds Few 800 ft
Mostly Cloudy 3200 ft
Mostly Cloudy 10000 ft
Heat Index 84 °F
Dew Point 74 °F
Humidity 84%
Rainfall 0.75 in
Snow Depth Not available.
UV 9 out of 12
Pollen Not available.
Air Quality Not available.
Flu Activity Not available.
METAR VTCC 020400Z 32003KT 8000 -RA FEW008 BKN032 BKN100 25/23 Q1012 A2988 NOSIG

More Conditions Fewer Conditions

Pressure 29.89 in
Visibility 5.0 miles
Clouds Few 800 ft
Mostly Cloudy 3200 ft
Mostly Cloudy 10000 ft
Heat Index 84 °F
Dew Point 74 °F
Humidity 84%
Rainfall 0.75 in
Snow Depth Not available.
UV 9 out of 12
Pollen Not available.
Air Quality Not available.
Flu Activity Not available.
METAR VTCC 020400Z 32003KT 8000 -RA FEW008 BKN032 BKN100 25/23 Q1012 A2988 NOSIG

More Conditions Fewer Conditions

10-Day Weather Forecast

Almanac

Astronomy

Sep. 02, 2014 Rise Set
Actual Time 6:09 AM ICT 6:38 PM ICT
Civil Twilight 5:47 AM ICT 7:00 PM ICT
Nautical Twilight 5:21 AM ICT 7:26 PM ICT
Astronomical Twilight 4:55 AM ICT 7:52 PM ICT
Moon 12:27 PM ICT No Moon Set
Length of Visible Light 13h 12m
Length of Day
12h 28m
Tomorrow will be 1m 1s shorter.
Waxing Crescent, 47% of the Moon is Illuminated
Today
Waxing Crescent
Sep 2
First Quarter
Sep 8
Full
Sep 15
Last Quarter
Sep 24
New

Yesterday's Extremes

Country Highs Country Lows

Community

WunderPhotos

Upload Photos

1,749,560 photos uploaded!

WunderBlogs® & News

Nearby

Snow Depth

Not available.

Earthquake Activity

City Distance Mag. Time & Date
No recent earthquake activity has been reported nearby.
Minimum magnitude displayed is 2.5.

Coastal Water Temperatures

Place Temperature
No Stations Reporting

Nearby Weather Stations